Дата Пункты Температура Давл., мм. Влажн., % Ветер Погодные явления
Воздуха Воды Направл. Скорость
05.06.15 02:00 Одесса 21.0 19.0 759 82 Пн-З 3 03 часа
04.06.15 08:00 Одесса 24.0 19.0 758 59 З 2 21 час
04.06.15 05:00 Одесса 27.0 19.0 758 48 Пд 2 18 часов
04.06.15 02:00 Одесса 27.0 19.0 759 47 Пд-С 2 15 часов
04.06.15 11:00 Одесса 26.0 20.0 760 54 Пд-С 1 12 часов
04.06.15 08:00 Одесса 25.0 20.0 759 66 Пн 1 09 часов
04.06.15 05:00 Одесса 19.0 18.0 759 84 Пн-З 1 06 часов
04.06.15 02:00 Одесса 20.0 18.0 760 77 Пн-З 1 03 часа
03.06.15 08:00 Одесса 22.0 18.0 760 66 З 1 21 час
03.06.15 05:00 Одесса 25.0 17.0 760 62 Пд 2 18 часов
03.06.15 02:00 Одесса 23.0 17.0 761 73 Пд-С 2 15 часов
03.06.15 11:00 Одесса 22.0 19.0 762 72 С 1 12 часов
03.06.15 08:00 Одесса 21.0 19.0 762 79 С 1 09 часов
03.06.15 05:00 Одесса 18.0 17.0 761 82 Пн-З 1 06 часов
03.06.15 02:00 Одесса 16.0 17.0 761 94 З 3 03 часа
02.06.15 08:00 Одесса 22.0 16.0 761 57 Пд-З 2 21 час
02.06.15 05:00 Одесса 24.0 16.0 761 52 Пд 2 18 часов
02.06.15 02:00 Одесса 22.0 16.0 761 69 Пд 5 15 часов
02.06.15 11:00 Одесса 21.0 17.0 762 74 Пд 3 12 часов
02.06.15 08:00 Одесса 20.0 17.0 762 77 Пд 1 09 часов
Количество строк
331 332 333 334 335 336 337 338 339 340
Page 339 of 436